TNCMTNCA

Guest
Details From TNCM - St Maarten - Princess Juliana Intl
To TNCA - Reina Beatrix Intl
Flight Number -
Tags Generated
Created
Modified
Stats Distance 520 nm / 963 km
Max Altitude 0 ft / 0 m
Waypoints 3
Social Downloads 7
Likes 0
Share VATSIM

Download

Looking for another format? Having issues loading an existing format? Contact us
Advertisement - Login to hide

Notes

Generated

Route

TNCM R1327 TNCA

ID Type Via Altitude Latitude Longitude Leg Dist Tot Dist Heading (true) Name
O TNCM APT - 0 ft / 0 m 18.03937˚ -63.11961˚ - 0 nm - -
R1327 FIX - 0 ft / 0 m 12.50439˚ -70.02747˚ 520 nm 520 nm 231° / 229° -
O TNCA APT - 0 ft / 0 m 12.50439˚ -70.02747˚ 0 nm 520 nm 0° / 180° -

Altitude Profile

Advertisement - Login to hide

Weather


0- 5 10 15 20 25 30 35+ Temperature / ° C

Clouds and Precipitation
Forecast for 2018-05-22 12:00 UTC. Updated an hour ago

Ground ~20,000 ft ~40,000 ft Winds

TNCM

Details ICAO TNCM (SXM)
Name St Maarten - Princess Juliana Intl
Region Caribbean Netherlands, Aruba, Curaçao, Sint Maarten
Timezone Unknown (UTC+0.0)
Stats Elevation 12 ft / 4 m (AMSL)
Location 18.040889° -63.108974°
Runways 1
Magnetic Variation 14.337° W

METAR

TNCM 221000Z 08011KT 050V110 9999 SCT017 26/22 Q1017 A3003

Decode

TAF

TAF TNCM 220540Z 2206/2306 09012KT P6SM VCSH SCT020

Decode

Departure Runways

ID Width Length Bearing (true) Bearing (mag) Surface Threshold Offset Overrun Length
10 148 ft / 45 m 7,464 ft / 2,275 m 81.43° 95.77° Asphalt 0 ft / 0 m 151 ft / 46 m
28 148 ft / 45 m 7,464 ft / 2,275 m 261.44° 275.78° Asphalt 397 ft / 121 m 0 ft / 0 m

TNCA

Details ICAO TNCA (AUA)
Name REINA BEATRIX INTL
Region Caribbean Netherlands, Aruba, Curaçao, Sint Maarten
Timezone America/Aruba (UTC-4.0)
Stats Elevation 60 ft / 18 m (AMSL)
Location 12.501389° -70.015220°
Runways 1
Magnetic Variation 10.813° W

METAR

TNCA 221000Z 09013KT 9999 SCT017 27/24 Q1012 NOSIG

Decode

TAF

TAF TNCA 220400Z 2206/2306 08012KT 9999 SCT018 TEMPO 2206/2212 BKN014

Decode

Destination Runways

ID Width Length Bearing (true) Bearing (mag) Surface Threshold Offset Overrun Length
11 148 ft / 45 m 8,998 ft / 2,743 m 104.08° 114.89° Asphalt 0 ft / 0 m 184 ft / 56 m
29 148 ft / 45 m 8,998 ft / 2,743 m 284.09° 294.90° Asphalt 0 ft / 0 m 184 ft / 56 m

Approach Navaids

Runway Type Ident Frequency Range Bearing (true) Bearing (mag) Slope Elevation
11 Localiser IBE 108.70 MHz 18 nm / 33 km 103.91° 114.72° - 58 ft / 18 m (AMSL)
11 Glidescope IBE 108.70 MHz 10 nm / 19 km 104.08° 114.90° 2.98° 10 ft / 3 m (AMSL)
11 DME IBE 108.70 MHz 18 nm / 33 km - - - 58 ft / 18 m (AMSL)

Popular Alternatives